sensor_id;sensor_type;location;lat;lon;timestamp;temperature;humidity
15413;DHT22;7805;49.554;7.632;2023-02-18T00:00:11;12.80;99.90
15413;DHT22;7805;49.554;7.632;2023-02-18T00:02:37;12.80;99.90
15413;DHT22;7805;49.554;7.632;2023-02-18T00:05:03;12.80;99.90
15413;DHT22;7805;49.554;7.632;2023-02-18T00:07:33;12.80;99.90
15413;DHT22;7805;49.554;7.632;2023-02-18T00:09:59;12.70;99.90
15413;DHT22;7805;49.554;7.632;2023-02-18T00:12:25;12.70;99.90
15413;DHT22;7805;49.554;7.632;2023-02-18T00:14:50;12.80;99.90
15413;DHT22;7805;49.554;7.632;2023-02-18T00:17:16;12.80;99.90
15413;DHT22;7805;49.554;7.632;2023-02-18T00:19:42;12.80;99.90
15413;DHT22;7805;49.554;7.632;2023-02-18T00:22:07;12.80;99.90
15413;DHT22;7805;49.554;7.632;2023-02-18T00:24:33;12.80;99.90
15413;DHT22;7805;49.554;7.632;2023-02-18T00:26:58;12.80;99.90
15413;DHT22;7805;49.554;7.632;2023-02-18T00:29:24;12.80;99.90
15413;DHT22;7805;49.554;7.632;2023-02-18T00:31:50;12.80;99.90
15413;DHT22;7805;49.554;7.632;2023-02-18T00:34:15;12.80;99.90
15413;DHT22;7805;49.554;7.632;2023-02-18T00:36:41;12.80;99.90
15413;DHT22;7805;49.554;7.632;2023-02-18T00:39:09;12.70;99.90
15413;DHT22;7805;49.554;7.632;2023-02-18T00:41:35;12.70;99.90
15413;DHT22;7805;49.554;7.632;2023-02-18T00:44:01;12.80;99.90
15413;DHT22;7805;49.554;7.632;2023-02-18T00:46:28;12.70;99.90
15413;DHT22;7805;49.554;7.632;2023-02-18T00:48:54;12.80;99.90
15413;DHT22;7805;49.554;7.632;2023-02-18T00:51:20;12.80;99.90
15413;DHT22;7805;49.554;7.632;2023-02-18T00:53:47;12.80;99.90
15413;DHT22;7805;49.554;7.632;2023-02-18T00:56:12;12.90;99.90
15413;DHT22;7805;49.554;7.632;2023-02-18T00:58:38;12.80;99.90
15413;DHT22;7805;49.554;7.632;2023-02-18T01:01:05;12.70;99.90
15413;DHT22;7805;49.554;7.632;2023-02-18T01:03:31;12.70;99.90
15413;DHT22;7805;49.554;7.632;2023-02-18T01:05:57;12.40;99.90
15413;DHT22;7805;49.554;7.632;2023-02-18T01:08:22;12.80;99.90
15413;DHT22;7805;49.554;7.632;2023-02-18T01:10:52;12.70;99.90
15413;DHT22;7805;49.554;7.632;2023-02-18T01:13:18;12.70;99.90
15413;DHT22;7805;49.554;7.632;2023-02-18T01:15:43;12.80;99.90
15413;DHT22;7805;49.554;7.632;2023-02-18T01:18:11;12.80;99.90
15413;DHT22;7805;49.554;7.632;2023-02-18T01:20:40;12.70;99.90
15413;DHT22;7805;49.554;7.632;2023-02-18T01:23:05;12.70;99.90
15413;DHT22;7805;49.554;7.632;2023-02-18T01:25:32;12.70;99.90
15413;DHT22;7805;49.554;7.632;2023-02-18T01:27:57;12.60;99.90
15413;DHT22;7805;49.554;7.632;2023-02-18T01:30:23;12.70;99.90
15413;DHT22;7805;49.554;7.632;2023-02-18T01:32:49;12.70;99.90
15413;DHT22;7805;49.554;7.632;2023-02-18T01:35:16;12.70;99.90
15413;DHT22;7805;49.554;7.632;2023-02-18T01:37:43;12.60;99.90
15413;DHT22;7805;49.554;7.632;2023-02-18T01:40:11;12.60;99.90
15413;DHT22;7805;49.554;7.632;2023-02-18T01:42:37;12.60;99.90
15413;DHT22;7805;49.554;7.632;2023-02-18T01:50:30;12.60;99.90
15413;DHT22;7805;49.554;7.632;2023-02-18T01:52:57;12.70;99.90
15413;DHT22;7805;49.554;7.632;2023-02-18T01:55:23;12.60;99.90
15413;DHT22;7805;49.554;7.632;2023-02-18T01:57:49;12.60;99.90
15413;DHT22;7805;49.554;7.632;2023-02-18T02:00:16;14.10;99.90
15413;DHT22;7805;49.554;7.632;2023-02-18T02:02:47;12.50;99.90
15413;DHT22;7805;49.554;7.632;2023-02-18T02:05:13;12.50;99.90
15413;DHT22;7805;49.554;7.632;2023-02-18T02:07:40;12.50;99.90
15413;DHT22;7805;49.554;7.632;2023-02-18T02:10:08;12.50;99.90
15413;DHT22;7805;49.554;7.632;2023-02-18T02:34:37;12.40;99.90
15413;DHT22;7805;49.554;7.632;2023-02-18T02:51:23;12.40;99.90
15413;DHT22;7805;49.554;7.632;2023-02-18T02:53:50;12.40;99.90
15413;DHT22;7805;49.554;7.632;2023-02-18T02:56:26;12.40;99.90
15413;DHT22;7805;49.554;7.632;2023-02-18T02:58:59;12.40;99.90
15413;DHT22;7805;49.554;7.632;2023-02-18T03:13:41;12.30;99.90
15413;DHT22;7805;49.554;7.632;2023-02-18T03:21:40;12.20;99.90
15413;DHT22;7805;49.554;7.632;2023-02-18T03:24:26;12.20;99.90
15413;DHT22;7805;49.554;7.632;2023-02-18T03:26:57;12.10;99.90
15413;DHT22;7805;49.554;7.632;2023-02-18T03:29:24;12.10;99.90
15413;DHT22;7805;49.554;7.632;2023-02-18T03:31:54;12.10;99.90
15413;DHT22;7805;49.554;7.632;2023-02-18T03:34:28;12.20;99.90
15413;DHT22;7805;49.554;7.632;2023-02-18T03:36:55;12.20;99.90
15413;DHT22;7805;49.554;7.632;2023-02-18T03:39:24;12.20;99.90
15413;DHT22;7805;49.554;7.632;2023-02-18T03:41:50;12.20;99.90
15413;DHT22;7805;49.554;7.632;2023-02-18T03:44:16;12.20;99.90
15413;DHT22;7805;49.554;7.632;2023-02-18T03:46:42;12.20;99.90
15413;DHT22;7805;49.554;7.632;2023-02-18T03:49:09;12.20;99.90
15413;DHT22;7805;49.554;7.632;2023-02-18T03:51:35;12.20;99.90
15413;DHT22;7805;49.554;7.632;2023-02-18T03:54:00;12.20;99.90
15413;DHT22;7805;49.554;7.632;2023-02-18T03:56:26;12.30;99.90
15413;DHT22;7805;49.554;7.632;2023-02-18T03:58:52;12.30;99.90
15413;DHT22;7805;49.554;7.632;2023-02-18T04:01:17;12.30;99.90
15413;DHT22;7805;49.554;7.632;2023-02-18T04:03:43;12.30;99.90
15413;DHT22;7805;49.554;7.632;2023-02-18T04:06:09;12.30;99.90
15413;DHT22;7805;49.554;7.632;2023-02-18T04:08:34;12.30;99.90
15413;DHT22;7805;49.554;7.632;2023-02-18T04:11:00;12.20;99.90
15413;DHT22;7805;49.554;7.632;2023-02-18T04:13:26;12.30;99.90
15413;DHT22;7805;49.554;7.632;2023-02-18T04:15:51;12.30;99.90
15413;DHT22;7805;49.554;7.632;2023-02-18T04:18:18;12.30;99.90
15413;DHT22;7805;49.554;7.632;2023-02-18T04:20:44;12.30;99.90
15413;DHT22;7805;49.554;7.632;2023-02-18T04:23:13;12.20;99.90
15413;DHT22;7805;49.554;7.632;2023-02-18T04:25:39;12.30;99.90
15413;DHT22;7805;49.554;7.632;2023-02-18T04:28:05;12.30;99.90
15413;DHT22;7805;49.554;7.632;2023-02-18T04:30:31;12.30;99.90
15413;DHT22;7805;49.554;7.632;2023-02-18T04:32:56;12.40;99.90
15413;DHT22;7805;49.554;7.632;2023-02-18T04:35:22;13.50;99.90
15413;DHT22;7805;49.554;7.632;2023-02-18T04:37:48;12.40;99.90
15413;DHT22;7805;49.554;7.632;2023-02-18T04:40:14;12.40;99.90
15413;DHT22;7805;49.554;7.632;2023-02-18T04:42:39;12.30;99.90
15413;DHT22;7805;49.554;7.632;2023-02-18T04:45:05;14.20;99.90
15413;DHT22;7805;49.554;7.632;2023-02-18T04:47:31;12.30;99.90
15413;DHT22;7805;49.554;7.632;2023-02-18T04:49:57;12.40;99.90
15413;DHT22;7805;49.554;7.632;2023-02-18T04:52:22;12.30;99.90
15413;DHT22;7805;49.554;7.632;2023-02-18T04:54:48;12.30;99.90
15413;DHT22;7805;49.554;7.632;2023-02-18T04:57:14;12.20;99.90
15413;DHT22;7805;49.554;7.632;2023-02-18T04:59:40;12.30;99.90
15413;DHT22;7805;49.554;7.632;2023-02-18T05:02:05;12.30;99.90
15413;DHT22;7805;49.554;7.632;2023-02-18T05:04:31;12.30;99.90
15413;DHT22;7805;49.554;7.632;2023-02-18T05:06:57;12.20;99.90
15413;DHT22;7805;49.554;7.632;2023-02-18T05:09:22;12.30;99.90
15413;DHT22;7805;49.554;7.632;2023-02-18T05:11:48;12.10;99.90
15413;DHT22;7805;49.554;7.632;2023-02-18T05:14:14;12.10;99.90
15413;DHT22;7805;49.554;7.632;2023-02-18T05:16:39;12.20;99.90
15413;DHT22;7805;49.554;7.632;2023-02-18T05:19:05;12.20;99.90
15413;DHT22;7805;49.554;7.632;2023-02-18T05:21:31;12.20;99.90
15413;DHT22;7805;49.554;7.632;2023-02-18T05:23:57;12.20;99.90
15413;DHT22;7805;49.554;7.632;2023-02-18T05:26:23;12.20;99.90
15413;DHT22;7805;49.554;7.632;2023-02-18T05:28:48;12.20;99.90
15413;DHT22;7805;49.554;7.632;2023-02-18T05:31:14;12.20;99.90
15413;DHT22;7805;49.554;7.632;2023-02-18T05:33:40;12.10;99.90
15413;DHT22;7805;49.554;7.632;2023-02-18T05:36:06;12.10;99.90
15413;DHT22;7805;49.554;7.632;2023-02-18T05:38:32;12.10;99.90
15413;DHT22;7805;49.554;7.632;2023-02-18T05:40:57;12.10;99.90
15413;DHT22;7805;49.554;7.632;2023-02-18T05:43:23;12.10;99.90
15413;DHT22;7805;49.554;7.632;2023-02-18T05:45:48;12.00;99.90
15413;DHT22;7805;49.554;7.632;2023-02-18T05:48:14;12.00;99.90
15413;DHT22;7805;49.554;7.632;2023-02-18T05:50:40;12.00;99.90
15413;DHT22;7805;49.554;7.632;2023-02-18T05:53:06;12.00;99.90
15413;DHT22;7805;49.554;7.632;2023-02-18T05:55:31;11.90;99.90
15413;DHT22;7805;49.554;7.632;2023-02-18T05:58:02;11.90;99.90
15413;DHT22;7805;49.554;7.632;2023-02-18T06:00:27;11.90;99.90
15413;DHT22;7805;49.554;7.632;2023-02-18T06:02:54;12.00;99.90
15413;DHT22;7805;49.554;7.632;2023-02-18T06:05:20;11.90;99.90
15413;DHT22;7805;49.554;7.632;2023-02-18T06:07:45;11.90;99.90
15413;DHT22;7805;49.554;7.632;2023-02-18T06:10:11;12.00;99.90
15413;DHT22;7805;49.554;7.632;2023-02-18T06:12:37;11.90;99.90
15413;DHT22;7805;49.554;7.632;2023-02-18T06:15:02;11.90;99.90
15413;DHT22;7805;49.554;7.632;2023-02-18T06:17:28;11.80;99.90
15413;DHT22;7805;49.554;7.632;2023-02-18T06:19:54;11.80;99.90
15413;DHT22;7805;49.554;7.632;2023-02-18T06:22:19;11.90;99.90
15413;DHT22;7805;49.554;7.632;2023-02-18T06:24:45;11.80;99.90
15413;DHT22;7805;49.554;7.632;2023-02-18T06:27:10;11.80;99.90
15413;DHT22;7805;49.554;7.632;2023-02-18T06:29:36;11.80;99.90
15413;DHT22;7805;49.554;7.632;2023-02-18T06:32:01;11.80;99.90
15413;DHT22;7805;49.554;7.632;2023-02-18T06:34:27;11.80;99.90
15413;DHT22;7805;49.554;7.632;2023-02-18T06:36:53;11.90;99.90
15413;DHT22;7805;49.554;7.632;2023-02-18T06:39:18;11.80;99.90
15413;DHT22;7805;49.554;7.632;2023-02-18T06:41:44;11.80;99.90
15413;DHT22;7805;49.554;7.632;2023-02-18T06:44:09;11.90;99.90
15413;DHT22;7805;49.554;7.632;2023-02-18T06:46:36;11.80;99.90
15413;DHT22;7805;49.554;7.632;2023-02-18T06:49:02;11.90;99.90
15413;DHT22;7805;49.554;7.632;2023-02-18T06:51:27;11.90;99.90
15413;DHT22;7805;49.554;7.632;2023-02-18T06:53:53;11.90;99.90
15413;DHT22;7805;49.554;7.632;2023-02-18T06:56:18;11.90;99.90
15413;DHT22;7805;49.554;7.632;2023-02-18T06:58:44;11.90;99.90
15413;DHT22;7805;49.554;7.632;2023-02-18T07:01:10;11.90;99.90
15413;DHT22;7805;49.554;7.632;2023-02-18T07:03:35;11.90;99.90
15413;DHT22;7805;49.554;7.632;2023-02-18T07:06:01;12.00;99.90
15413;DHT22;7805;49.554;7.632;2023-02-18T07:08:26;11.90;99.90
15413;DHT22;7805;49.554;7.632;2023-02-18T07:10:52;12.00;99.90
15413;DHT22;7805;49.554;7.632;2023-02-18T07:13:17;12.00;99.90
15413;DHT22;7805;49.554;7.632;2023-02-18T07:15:43;12.00;99.90
15413;DHT22;7805;49.554;7.632;2023-02-18T07:18:09;12.10;99.90
15413;DHT22;7805;49.554;7.632;2023-02-18T07:20:34;12.00;99.90
15413;DHT22;7805;49.554;7.632;2023-02-18T07:23:00;12.10;99.90
15413;DHT22;7805;49.554;7.632;2023-02-18T07:25:26;12.00;99.90
15413;DHT22;7805;49.554;7.632;2023-02-18T07:27:51;12.00;99.90
15413;DHT22;7805;49.554;7.632;2023-02-18T07:30:18;12.10;99.90
15413;DHT22;7805;49.554;7.632;2023-02-18T07:32:44;12.10;99.90
15413;DHT22;7805;49.554;7.632;2023-02-18T07:35:13;10.20;99.90
15413;DHT22;7805;49.554;7.632;2023-02-18T07:37:42;12.00;99.90
15413;DHT22;7805;49.554;7.632;2023-02-18T07:40:09;12.20;99.90
15413;DHT22;7805;49.554;7.632;2023-02-18T07:42:37;12.20;99.90
15413;DHT22;7805;49.554;7.632;2023-02-18T07:45:02;12.30;99.90
15413;DHT22;7805;49.554;7.632;2023-02-18T07:47:28;12.20;99.90
15413;DHT22;7805;49.554;7.632;2023-02-18T07:49:54;12.20;99.90
15413;DHT22;7805;49.554;7.632;2023-02-18T07:52:19;12.30;99.90
15413;DHT22;7805;49.554;7.632;2023-02-18T07:54:45;12.20;99.90
15413;DHT22;7805;49.554;7.632;2023-02-18T07:57:10;12.20;99.90
15413;DHT22;7805;49.554;7.632;2023-02-18T07:59:36;12.20;99.90
15413;DHT22;7805;49.554;7.632;2023-02-18T08:02:02;10.90;99.90
15413;DHT22;7805;49.554;7.632;2023-02-18T08:04:29;12.20;99.90
15413;DHT22;7805;49.554;7.632;2023-02-18T08:06:55;12.20;99.90
15413;DHT22;7805;49.554;7.632;2023-02-18T08:09:21;12.20;99.90
15413;DHT22;7805;49.554;7.632;2023-02-18T08:11:46;12.20;99.90
15413;DHT22;7805;49.554;7.632;2023-02-18T08:14:12;12.20;99.90
15413;DHT22;7805;49.554;7.632;2023-02-18T08:16:37;12.10;99.90
15413;DHT22;7805;49.554;7.632;2023-02-18T08:19:03;12.20;99.90
15413;DHT22;7805;49.554;7.632;2023-02-18T08:21:29;12.20;99.90
15413;DHT22;7805;49.554;7.632;2023-02-18T08:23:57;12.30;99.90
15413;DHT22;7805;49.554;7.632;2023-02-18T08:26:23;12.40;99.90
15413;DHT22;7805;49.554;7.632;2023-02-18T08:28:49;12.60;99.90
15413;DHT22;7805;49.554;7.632;2023-02-18T08:31:23;12.60;99.90
15413;DHT22;7805;49.554;7.632;2023-02-18T08:33:49;12.70;99.90
15413;DHT22;7805;49.554;7.632;2023-02-18T08:36:15;12.90;99.90
15413;DHT22;7805;49.554;7.632;2023-02-18T08:38:41;14.40;99.90
15413;DHT22;7805;49.554;7.632;2023-02-18T08:41:07;13.20;99.90
15413;DHT22;7805;49.554;7.632;2023-02-18T08:43:33;13.50;99.90
15413;DHT22;7805;49.554;7.632;2023-02-18T08:45:59;13.80;99.90
15413;DHT22;7805;49.554;7.632;2023-02-18T08:48:25;13.90;99.90
15413;DHT22;7805;49.554;7.632;2023-02-18T08:50:51;13.90;99.90
15413;DHT22;7805;49.554;7.632;2023-02-18T08:53:17;14.00;99.90
15413;DHT22;7805;49.554;7.632;2023-02-18T08:55:43;14.00;99.90
15413;DHT22;7805;49.554;7.632;2023-02-18T08:58:09;14.00;99.90
15413;DHT22;7805;49.554;7.632;2023-02-18T09:00:36;14.00;99.90
15413;DHT22;7805;49.554;7.632;2023-02-18T09:03:02;14.00;99.90
15413;DHT22;7805;49.554;7.632;2023-02-18T09:05:28;14.00;99.90
15413;DHT22;7805;49.554;7.632;2023-02-18T09:07:53;14.20;99.90
15413;DHT22;7805;49.554;7.632;2023-02-18T09:10:19;14.20;99.90
15413;DHT22;7805;49.554;7.632;2023-02-18T09:12:45;14.20;99.90
15413;DHT22;7805;49.554;7.632;2023-02-18T09:15:11;14.30;99.90
15413;DHT22;7805;49.554;7.632;2023-02-18T09:17:36;14.10;99.90
15413;DHT22;7805;49.554;7.632;2023-02-18T09:20:03;14.20;99.90
15413;DHT22;7805;49.554;7.632;2023-02-18T09:22:35;14.00;99.90
15413;DHT22;7805;49.554;7.632;2023-02-18T09:25:01;13.70;99.90
15413;DHT22;7805;49.554;7.632;2023-02-18T09:27:27;13.80;99.90
15413;DHT22;7805;49.554;7.632;2023-02-18T09:29:52;13.90;99.90
15413;DHT22;7805;49.554;7.632;2023-02-18T09:32:18;12.70;99.90
15413;DHT22;7805;49.554;7.632;2023-02-18T09:34:44;14.00;99.90
15413;DHT22;7805;49.554;7.632;2023-02-18T09:37:10;14.00;99.90
15413;DHT22;7805;49.554;7.632;2023-02-18T09:39:36;13.90;99.90
15413;DHT22;7805;49.554;7.632;2023-02-18T09:42:04;14.00;99.90
15413;DHT22;7805;49.554;7.632;2023-02-18T09:44:57;14.00;99.90
15413;DHT22;7805;49.554;7.632;2023-02-18T09:47:25;14.20;99.90
15413;DHT22;7805;49.554;7.632;2023-02-18T09:49:58;14.40;99.90
15413;DHT22;7805;49.554;7.632;2023-02-18T09:52:30;14.60;99.90
15413;DHT22;7805;49.554;7.632;2023-02-18T09:54:57;14.60;99.90
15413;DHT22;7805;49.554;7.632;2023-02-18T09:57:25;14.60;99.90
15413;DHT22;7805;49.554;7.632;2023-02-18T09:59:58;14.20;99.90
15413;DHT22;7805;49.554;7.632;2023-02-18T10:02:24;14.30;99.90
15413;DHT22;7805;49.554;7.632;2023-02-18T10:04:50;14.50;99.90
15413;DHT22;7805;49.554;7.632;2023-02-18T10:07:30;14.80;99.90
15413;DHT22;7805;49.554;7.632;2023-02-18T10:10:00;15.20;99.90
15413;DHT22;7805;49.554;7.632;2023-02-18T10:12:28;15.30;99.90
15413;DHT22;7805;49.554;7.632;2023-02-18T10:14:57;15.50;99.90
15413;DHT22;7805;49.554;7.632;2023-02-18T10:17:26;15.40;99.90
15413;DHT22;7805;49.554;7.632;2023-02-18T10:19:54;15.30;99.90
15413;DHT22;7805;49.554;7.632;2023-02-18T10:22:23;15.40;99.90
15413;DHT22;7805;49.554;7.632;2023-02-18T10:24:52;15.50;99.90
15413;DHT22;7805;49.554;7.632;2023-02-18T10:27:32;15.40;99.90
15413;DHT22;7805;49.554;7.632;2023-02-18T10:30:31;15.30;99.90
15413;DHT22;7805;49.554;7.632;2023-02-18T10:33:25;14.90;99.90
15413;DHT22;7805;49.554;7.632;2023-02-18T10:36:30;14.80;99.90
15413;DHT22;7805;49.554;7.632;2023-02-18T10:39:24;14.90;99.90
15413;DHT22;7805;49.554;7.632;2023-02-18T10:42:12;15.10;99.90
15413;DHT22;7805;49.554;7.632;2023-02-18T10:45:07;14.90;99.90
15413;DHT22;7805;49.554;7.632;2023-02-18T10:50:41;14.60;99.90
15413;DHT22;7805;49.554;7.632;2023-02-18T10:53:35;14.70;99.90
15413;DHT22;7805;49.554;7.632;2023-02-18T10:56:02;15.00;99.90
15413;DHT22;7805;49.554;7.632;2023-02-18T10:58:46;15.20;99.90
15413;DHT22;7805;49.554;7.632;2023-02-18T11:01:19;15.10;99.90
15413;DHT22;7805;49.554;7.632;2023-02-18T11:03:48;15.10;99.90
15413;DHT22;7805;49.554;7.632;2023-02-18T11:06:21;15.10;99.90
15413;DHT22;7805;49.554;7.632;2023-02-18T11:08:48;15.20;99.90
15413;DHT22;7805;49.554;7.632;2023-02-18T11:11:28;15.30;99.90
15413;DHT22;7805;49.554;7.632;2023-02-18T11:13:57;15.20;99.80
15413;DHT22;7805;49.554;7.632;2023-02-18T11:16:42;15.20;99.90
15413;DHT22;7805;49.554;7.632;2023-02-18T11:22:14;15.00;99.90
15413;DHT22;7805;49.554;7.632;2023-02-18T11:24:41;15.10;99.90
15413;DHT22;7805;49.554;7.632;2023-02-18T11:27:31;15.20;99.90
15413;DHT22;7805;49.554;7.632;2023-02-18T11:30:04;15.30;99.90
15413;DHT22;7805;49.554;7.632;2023-02-18T11:32:33;15.50;99.90
15413;DHT22;7805;49.554;7.632;2023-02-18T11:35:03;15.60;99.90
15413;DHT22;7805;49.554;7.632;2023-02-18T11:37:32;15.90;99.90
15413;DHT22;7805;49.554;7.632;2023-02-18T11:39:58;16.20;99.60
15413;DHT22;7805;49.554;7.632;2023-02-18T11:42:24;16.40;99.10
15413;DHT22;7805;49.554;7.632;2023-02-18T11:44:58;16.30;98.80
15413;DHT22;7805;49.554;7.632;2023-02-18T11:47:32;18.30;98.80
15413;DHT22;7805;49.554;7.632;2023-02-18T11:50:21;15.90;98.10
15413;DHT22;7805;49.554;7.632;2023-02-18T11:52:48;15.50;98.70
15413;DHT22;7805;49.554;7.632;2023-02-18T11:55:21;15.30;99.40
15413;DHT22;7805;49.554;7.632;2023-02-18T11:57:58;15.20;99.10
15413;DHT22;7805;49.554;7.632;2023-02-18T12:00:41;15.10;99.30
15413;DHT22;7805;49.554;7.632;2023-02-18T12:05:57;14.80;99.50
15413;DHT22;7805;49.554;7.632;2023-02-18T12:08:27;14.90;99.50
15413;DHT22;7805;49.554;7.632;2023-02-18T12:11:29;15.00;99.60
15413;DHT22;7805;49.554;7.632;2023-02-18T12:13:57;15.40;99.10
15413;DHT22;7805;49.554;7.632;2023-02-18T12:22:01;15.90;98.30
15413;DHT22;7805;49.554;7.632;2023-02-18T12:35:56;15.70;98.00
15413;DHT22;7805;49.554;7.632;2023-02-18T13:15:02;15.10;99.50
15413;DHT22;7805;49.554;7.632;2023-02-18T13:17:33;15.10;99.50
15413;DHT22;7805;49.554;7.632;2023-02-18T13:20:23;15.00;99.60
15413;DHT22;7805;49.554;7.632;2023-02-18T13:22:51;14.90;99.90
15413;DHT22;7805;49.554;7.632;2023-02-18T13:25:18;14.90;99.90
15413;DHT22;7805;49.554;7.632;2023-02-18T13:30:47;14.10;99.30
15413;DHT22;7805;49.554;7.632;2023-02-18T13:39:05;15.30;99.00
15413;DHT22;7805;49.554;7.632;2023-02-18T13:41:41;15.50;99.30
15413;DHT22;7805;49.554;7.632;2023-02-18T13:46:53;15.20;99.60
15413;DHT22;7805;49.554;7.632;2023-02-18T13:49:39;15.70;99.20
15413;DHT22;7805;49.554;7.632;2023-02-18T13:52:06;15.80;98.50
15413;DHT22;7805;49.554;7.632;2023-02-18T13:54:44;15.80;98.60
15413;DHT22;7805;49.554;7.632;2023-02-18T13:57:19;16.50;98.30
15413;DHT22;7805;49.554;7.632;2023-02-18T14:09:59;15.60;98.20
15413;DHT22;7805;49.554;7.632;2023-02-18T14:12:38;16.10;99.00
15413;DHT22;7805;49.554;7.632;2023-02-18T14:17:50;13.50;99.20
15413;DHT22;7805;49.554;7.632;2023-02-18T14:22:57;16.00;99.90
15413;DHT22;7805;49.554;7.632;2023-02-18T14:25:35;14.70;99.90
15413;DHT22;7805;49.554;7.632;2023-02-18T14:31:04;14.70;99.70
15413;DHT22;7805;49.554;7.632;2023-02-18T14:33:34;16.70;99.90
15413;DHT22;7805;49.554;7.632;2023-02-18T14:41:21;14.50;99.90
15413;DHT22;7805;49.554;7.632;2023-02-18T14:44:31;14.30;99.90
15413;DHT22;7805;49.554;7.632;2023-02-18T14:49:59;14.20;99.90
15413;DHT22;7805;49.554;7.632;2023-02-18T14:52:48;14.00;99.90
15413;DHT22;7805;49.554;7.632;2023-02-18T14:55:26;14.00;99.90
15413;DHT22;7805;49.554;7.632;2023-02-18T14:58:01;13.90;99.90
15413;DHT22;7805;49.554;7.632;2023-02-18T15:00:29;13.80;99.90
15413;DHT22;7805;49.554;7.632;2023-02-18T15:03:00;13.80;99.90
15413;DHT22;7805;49.554;7.632;2023-02-18T15:05:30;13.70;99.90
15413;DHT22;7805;49.554;7.632;2023-02-18T15:08:04;13.60;99.90
15413;DHT22;7805;49.554;7.632;2023-02-18T15:10:55;13.50;99.90
15413;DHT22;7805;49.554;7.632;2023-02-18T15:13:35;13.50;99.90
15413;DHT22;7805;49.554;7.632;2023-02-18T15:16:07;13.50;99.90
15413;DHT22;7805;49.554;7.632;2023-02-18T15:18:35;13.30;99.90
15413;DHT22;7805;49.554;7.632;2023-02-18T15:21:05;13.30;99.90
15413;DHT22;7805;49.554;7.632;2023-02-18T15:23:35;13.30;99.90
15413;DHT22;7805;49.554;7.632;2023-02-18T15:26:02;13.20;99.90
15413;DHT22;7805;49.554;7.632;2023-02-18T15:28:30;13.20;99.90
15413;DHT22;7805;49.554;7.632;2023-02-18T15:31:02;13.10;99.90
15413;DHT22;7805;49.554;7.632;2023-02-18T15:33:28;12.90;99.90
15413;DHT22;7805;49.554;7.632;2023-02-18T15:36:02;12.90;99.90
15413;DHT22;7805;49.554;7.632;2023-02-18T15:38:28;14.50;99.90
15413;DHT22;7805;49.554;7.632;2023-02-18T15:40:54;12.90;99.90
15413;DHT22;7805;49.554;7.632;2023-02-18T15:43:22;12.80;99.90
15413;DHT22;7805;49.554;7.632;2023-02-18T15:45:50;12.80;99.90
15413;DHT22;7805;49.554;7.632;2023-02-18T15:48:24;12.80;99.90
15413;DHT22;7805;49.554;7.632;2023-02-18T15:50:54;11.80;99.90
15413;DHT22;7805;49.554;7.632;2023-02-18T15:53:20;12.90;99.90
15413;DHT22;7805;49.554;7.632;2023-02-18T15:55:49;12.80;99.90
15413;DHT22;7805;49.554;7.632;2023-02-18T15:58:29;12.80;99.90
15413;DHT22;7805;49.554;7.632;2023-02-18T16:00:58;12.80;99.90
15413;DHT22;7805;49.554;7.632;2023-02-18T16:06:16;12.70;99.90
15413;DHT22;7805;49.554;7.632;2023-02-18T16:11:34;12.90;99.90
15413;DHT22;7805;49.554;7.632;2023-02-18T16:14:01;12.80;99.90
15413;DHT22;7805;49.554;7.632;2023-02-18T16:16:30;12.80;99.90
15413;DHT22;7805;49.554;7.632;2023-02-18T16:18:56;12.70;99.90
15413;DHT22;7805;49.554;7.632;2023-02-18T16:24:01;12.60;99.90
15413;DHT22;7805;49.554;7.632;2023-02-18T16:31:37;12.50;99.90
15413;DHT22;7805;49.554;7.632;2023-02-18T16:34:02;12.50;99.90
15413;DHT22;7805;49.554;7.632;2023-02-18T16:36:28;12.50;99.90
15413;DHT22;7805;49.554;7.632;2023-02-18T16:38:53;12.50;99.90
15413;DHT22;7805;49.554;7.632;2023-02-18T16:41:20;12.40;99.90
15413;DHT22;7805;49.554;7.632;2023-02-18T16:43:46;12.60;99.90
15413;DHT22;7805;49.554;7.632;2023-02-18T16:46:16;12.40;99.90
15413;DHT22;7805;49.554;7.632;2023-02-18T16:48:48;12.40;99.90
15413;DHT22;7805;49.554;7.632;2023-02-18T16:51:34;12.30;99.90
15413;DHT22;7805;49.554;7.632;2023-02-18T16:53:59;12.30;99.90
15413;DHT22;7805;49.554;7.632;2023-02-18T16:56:30;12.20;99.90
15413;DHT22;7805;49.554;7.632;2023-02-18T16:58:56;12.20;99.90
15413;DHT22;7805;49.554;7.632;2023-02-18T17:01:29;12.20;99.90
15413;DHT22;7805;49.554;7.632;2023-02-18T17:03:56;12.20;99.90
15413;DHT22;7805;49.554;7.632;2023-02-18T17:06:22;12.20;99.90
15413;DHT22;7805;49.554;7.632;2023-02-18T17:08:48;12.00;99.90
15413;DHT22;7805;49.554;7.632;2023-02-18T17:11:18;12.00;99.90
15413;DHT22;7805;49.554;7.632;2023-02-18T17:13:46;12.10;99.90
15413;DHT22;7805;49.554;7.632;2023-02-18T17:16:12;12.10;99.90
15413;DHT22;7805;49.554;7.632;2023-02-18T17:18:37;12.10;99.90
15413;DHT22;7805;49.554;7.632;2023-02-18T17:21:03;12.10;99.90
15413;DHT22;7805;49.554;7.632;2023-02-18T17:23:29;12.10;99.90
15413;DHT22;7805;49.554;7.632;2023-02-18T17:25:54;12.10;99.90
15413;DHT22;7805;49.554;7.632;2023-02-18T17:28:20;12.10;99.90
15413;DHT22;7805;49.554;7.632;2023-02-18T17:30:55;12.10;99.90
15413;DHT22;7805;49.554;7.632;2023-02-18T17:33:22;12.20;99.90
15413;DHT22;7805;49.554;7.632;2023-02-18T17:35:49;12.30;99.90
15413;DHT22;7805;49.554;7.632;2023-02-18T17:38:16;12.40;99.90
15413;DHT22;7805;49.554;7.632;2023-02-18T17:40:43;12.50;99.90
15413;DHT22;7805;49.554;7.632;2023-02-18T17:43:11;12.60;99.90
15413;DHT22;7805;49.554;7.632;2023-02-18T17:45:48;12.60;99.90
15413;DHT22;7805;49.554;7.632;2023-02-18T17:48:14;12.70;99.90
15413;DHT22;7805;49.554;7.632;2023-02-18T17:50:40;12.90;99.90
15413;DHT22;7805;49.554;7.632;2023-02-18T17:53:05;12.70;99.90
15413;DHT22;7805;49.554;7.632;2023-02-18T17:55:33;12.40;99.90
15413;DHT22;7805;49.554;7.632;2023-02-18T17:57:59;12.50;99.90
15413;DHT22;7805;49.554;7.632;2023-02-18T18:00:29;12.10;99.90
15413;DHT22;7805;49.554;7.632;2023-02-18T18:02:55;12.10;99.90
15413;DHT22;7805;49.554;7.632;2023-02-18T18:07:50;12.00;99.90
15413;DHT22;7805;49.554;7.632;2023-02-18T18:10:18;11.90;99.90
15413;DHT22;7805;49.554;7.632;2023-02-18T18:12:43;11.80;99.90
15413;DHT22;7805;49.554;7.632;2023-02-18T18:15:30;11.80;99.90
15413;DHT22;7805;49.554;7.632;2023-02-18T18:17:59;11.70;99.90
15413;DHT22;7805;49.554;7.632;2023-02-18T18:20:27;11.60;99.90
15413;DHT22;7805;49.554;7.632;2023-02-18T18:22:55;11.60;99.90
15413;DHT22;7805;49.554;7.632;2023-02-18T18:25:26;11.60;99.90
15413;DHT22;7805;49.554;7.632;2023-02-18T18:27:53;11.60;99.90
15413;DHT22;7805;49.554;7.632;2023-02-18T18:30:21;11.60;99.90
15413;DHT22;7805;49.554;7.632;2023-02-18T18:32:48;11.60;99.90
15413;DHT22;7805;49.554;7.632;2023-02-18T18:37:49;11.50;99.90
15413;DHT22;7805;49.554;7.632;2023-02-18T18:40:16;11.50;99.90
15413;DHT22;7805;49.554;7.632;2023-02-18T18:42:41;11.50;99.90
15413;DHT22;7805;49.554;7.632;2023-02-18T18:45:25;11.60;99.90
15413;DHT22;7805;49.554;7.632;2023-02-18T18:47:52;11.70;99.90
15413;DHT22;7805;49.554;7.632;2023-02-18T18:50:20;11.70;99.90
15413;DHT22;7805;49.554;7.632;2023-02-18T18:52:47;11.70;99.90